sensor_id;sensor_type;location;lat;lon;timestamp;temperature;humidity
43183;DHT22;28802;38.578;-0.066;2023-08-12T00:02:12;26.40;99.90
43183;DHT22;28802;38.578;-0.066;2023-08-12T00:04:38;26.40;99.90
43183;DHT22;28802;38.578;-0.066;2023-08-12T00:07:04;26.40;99.90
43183;DHT22;28802;38.578;-0.066;2023-08-12T00:09:30;26.30;99.90
43183;DHT22;28802;38.578;-0.066;2023-08-12T00:11:56;26.20;99.90
43183;DHT22;28802;38.578;-0.066;2023-08-12T00:14:21;26.10;99.90
43183;DHT22;28802;38.578;-0.066;2023-08-12T00:16:47;25.90;99.90
43183;DHT22;28802;38.578;-0.066;2023-08-12T00:19:13;25.80;99.90
43183;DHT22;28802;38.578;-0.066;2023-08-12T00:21:39;25.80;99.90
43183;DHT22;28802;38.578;-0.066;2023-08-12T00:24:05;25.80;99.90
43183;DHT22;28802;38.578;-0.066;2023-08-12T00:26:31;25.90;99.90
43183;DHT22;28802;38.578;-0.066;2023-08-12T00:28:57;25.90;99.90
43183;DHT22;28802;38.578;-0.066;2023-08-12T00:31:23;25.90;99.90
43183;DHT22;28802;38.578;-0.066;2023-08-12T00:33:49;25.90;99.90
43183;DHT22;28802;38.578;-0.066;2023-08-12T00:36:14;25.90;99.90
43183;DHT22;28802;38.578;-0.066;2023-08-12T00:38:40;25.90;99.90
43183;DHT22;28802;38.578;-0.066;2023-08-12T00:41:06;25.90;99.90
43183;DHT22;28802;38.578;-0.066;2023-08-12T00:43:32;25.90;99.90
43183;DHT22;28802;38.578;-0.066;2023-08-12T00:45:58;25.80;99.90
43183;DHT22;28802;38.578;-0.066;2023-08-12T00:48:25;25.70;99.90
43183;DHT22;28802;38.578;-0.066;2023-08-12T00:50:51;25.90;99.90
43183;DHT22;28802;38.578;-0.066;2023-08-12T00:53:18;26.00;99.90
43183;DHT22;28802;38.578;-0.066;2023-08-12T00:55:44;26.00;99.90
43183;DHT22;28802;38.578;-0.066;2023-08-12T00:58:10;26.00;99.90
43183;DHT22;28802;38.578;-0.066;2023-08-12T01:00:36;26.00;99.90
43183;DHT22;28802;38.578;-0.066;2023-08-12T01:03:03;26.00;99.90
43183;DHT22;28802;38.578;-0.066;2023-08-12T01:05:30;26.10;99.90
43183;DHT22;28802;38.578;-0.066;2023-08-12T01:07:56;26.20;99.90
43183;DHT22;28802;38.578;-0.066;2023-08-12T01:10:24;26.10;99.90
43183;DHT22;28802;38.578;-0.066;2023-08-12T01:13:03;26.10;99.90
43183;DHT22;28802;38.578;-0.066;2023-08-12T01:15:33;26.20;99.90
43183;DHT22;28802;38.578;-0.066;2023-08-12T01:18:00;26.20;99.90
43183;DHT22;28802;38.578;-0.066;2023-08-12T01:20:28;26.20;99.90
43183;DHT22;28802;38.578;-0.066;2023-08-12T01:23:13;26.10;99.90
43183;DHT22;28802;38.578;-0.066;2023-08-12T01:25:40;26.20;99.90
43183;DHT22;28802;38.578;-0.066;2023-08-12T01:28:06;26.10;99.90
43183;DHT22;28802;38.578;-0.066;2023-08-12T01:33:30;26.00;99.90
43183;DHT22;28802;38.578;-0.066;2023-08-12T01:36:19;26.00;99.90
43183;DHT22;28802;38.578;-0.066;2023-08-12T01:38:47;25.90;99.90
43183;DHT22;28802;38.578;-0.066;2023-08-12T01:41:16;25.90;99.90
43183;DHT22;28802;38.578;-0.066;2023-08-12T01:43:44;25.90;99.90
43183;DHT22;28802;38.578;-0.066;2023-08-12T01:46:10;25.90;99.90
43183;DHT22;28802;38.578;-0.066;2023-08-12T01:48:36;25.90;99.90
43183;DHT22;28802;38.578;-0.066;2023-08-12T01:51:02;25.90;99.90
43183;DHT22;28802;38.578;-0.066;2023-08-12T01:53:28;25.90;99.90
43183;DHT22;28802;38.578;-0.066;2023-08-12T01:55:54;25.90;99.90
43183;DHT22;28802;38.578;-0.066;2023-08-12T01:58:20;25.90;99.90
43183;DHT22;28802;38.578;-0.066;2023-08-12T02:00:46;25.90;99.90
43183;DHT22;28802;38.578;-0.066;2023-08-12T02:03:12;26.00;99.90
43183;DHT22;28802;38.578;-0.066;2023-08-12T02:05:38;25.90;99.90
43183;DHT22;28802;38.578;-0.066;2023-08-12T02:08:04;25.90;99.90
43183;DHT22;28802;38.578;-0.066;2023-08-12T02:10:34;25.90;99.90
43183;DHT22;28802;38.578;-0.066;2023-08-12T02:13:00;25.90;99.90
43183;DHT22;28802;38.578;-0.066;2023-08-12T02:15:26;25.90;99.90
43183;DHT22;28802;38.578;-0.066;2023-08-12T02:17:51;25.80;99.90
43183;DHT22;28802;38.578;-0.066;2023-08-12T02:20:17;25.80;99.90
43183;DHT22;28802;38.578;-0.066;2023-08-12T02:22:44;25.70;99.90
43183;DHT22;28802;38.578;-0.066;2023-08-12T02:25:10;25.70;99.90
43183;DHT22;28802;38.578;-0.066;2023-08-12T02:27:36;25.70;99.90
43183;DHT22;28802;38.578;-0.066;2023-08-12T02:30:02;25.70;99.90
43183;DHT22;28802;38.578;-0.066;2023-08-12T02:32:28;25.70;99.90
43183;DHT22;28802;38.578;-0.066;2023-08-12T02:34:54;25.70;99.90
43183;DHT22;28802;38.578;-0.066;2023-08-12T02:37:20;25.70;99.90
43183;DHT22;28802;38.578;-0.066;2023-08-12T02:39:47;25.70;99.90
43183;DHT22;28802;38.578;-0.066;2023-08-12T02:42:13;25.70;99.90
43183;DHT22;28802;38.578;-0.066;2023-08-12T02:44:39;25.70;99.90
43183;DHT22;28802;38.578;-0.066;2023-08-12T02:47:04;25.70;99.90
43183;DHT22;28802;38.578;-0.066;2023-08-12T02:49:30;25.70;99.90
43183;DHT22;28802;38.578;-0.066;2023-08-12T02:51:56;25.70;99.90
43183;DHT22;28802;38.578;-0.066;2023-08-12T02:54:22;25.70;99.90
43183;DHT22;28802;38.578;-0.066;2023-08-12T02:56:50;25.60;99.90
43183;DHT22;28802;38.578;-0.066;2023-08-12T02:59:16;25.60;99.90
43183;DHT22;28802;38.578;-0.066;2023-08-12T03:01:42;25.50;99.90
43183;DHT22;28802;38.578;-0.066;2023-08-12T03:04:08;25.50;99.90
43183;DHT22;28802;38.578;-0.066;2023-08-12T03:06:34;25.50;99.90
43183;DHT22;28802;38.578;-0.066;2023-08-12T03:09:00;25.40;99.90
43183;DHT22;28802;38.578;-0.066;2023-08-12T03:11:26;25.40;99.90
43183;DHT22;28802;38.578;-0.066;2023-08-12T03:13:54;25.40;99.90
43183;DHT22;28802;38.578;-0.066;2023-08-12T03:16:21;25.40;99.90
43183;DHT22;28802;38.578;-0.066;2023-08-12T03:18:47;25.40;99.90
43183;DHT22;28802;38.578;-0.066;2023-08-12T03:21:14;25.30;99.90
43183;DHT22;28802;38.578;-0.066;2023-08-12T03:23:40;25.30;99.90
43183;DHT22;28802;38.578;-0.066;2023-08-12T03:26:09;25.30;99.90
43183;DHT22;28802;38.578;-0.066;2023-08-12T03:28:35;25.30;99.90
43183;DHT22;28802;38.578;-0.066;2023-08-12T03:31:01;25.40;99.90
43183;DHT22;28802;38.578;-0.066;2023-08-12T03:33:27;25.30;99.90
43183;DHT22;28802;38.578;-0.066;2023-08-12T03:35:54;25.30;99.90
43183;DHT22;28802;38.578;-0.066;2023-08-12T03:38:20;25.30;99.90
43183;DHT22;28802;38.578;-0.066;2023-08-12T03:40:46;25.30;99.90
43183;DHT22;28802;38.578;-0.066;2023-08-12T03:43:15;25.30;99.90
43183;DHT22;28802;38.578;-0.066;2023-08-12T03:45:43;25.30;99.90
43183;DHT22;28802;38.578;-0.066;2023-08-12T03:48:10;25.30;99.90
43183;DHT22;28802;38.578;-0.066;2023-08-12T03:50:37;25.30;99.90
43183;DHT22;28802;38.578;-0.066;2023-08-12T03:53:05;25.30;99.90
43183;DHT22;28802;38.578;-0.066;2023-08-12T03:55:34;25.30;99.90
43183;DHT22;28802;38.578;-0.066;2023-08-12T03:58:00;25.30;99.90
43183;DHT22;28802;38.578;-0.066;2023-08-12T04:00:28;25.40;99.90
43183;DHT22;28802;38.578;-0.066;2023-08-12T04:02:57;25.50;99.90
43183;DHT22;28802;38.578;-0.066;2023-08-12T04:05:23;25.40;99.90
43183;DHT22;28802;38.578;-0.066;2023-08-12T04:07:49;25.40;99.90
43183;DHT22;28802;38.578;-0.066;2023-08-12T04:10:15;25.40;99.90
43183;DHT22;28802;38.578;-0.066;2023-08-12T04:12:43;25.30;99.90
43183;DHT22;28802;38.578;-0.066;2023-08-12T04:15:09;25.30;99.90
43183;DHT22;28802;38.578;-0.066;2023-08-12T04:17:35;25.30;99.90
43183;DHT22;28802;38.578;-0.066;2023-08-12T04:20:03;25.20;99.90
43183;DHT22;28802;38.578;-0.066;2023-08-12T04:22:33;25.10;99.90
43183;DHT22;28802;38.578;-0.066;2023-08-12T04:25:00;25.00;99.90
43183;DHT22;28802;38.578;-0.066;2023-08-12T04:27:26;25.10;99.90
43183;DHT22;28802;38.578;-0.066;2023-08-12T04:29:53;25.10;99.90
43183;DHT22;28802;38.578;-0.066;2023-08-12T04:32:19;25.10;99.90
43183;DHT22;28802;38.578;-0.066;2023-08-12T04:34:46;25.10;99.90
43183;DHT22;28802;38.578;-0.066;2023-08-12T04:37:13;25.00;99.90
43183;DHT22;28802;38.578;-0.066;2023-08-12T04:39:39;25.00;99.90
43183;DHT22;28802;38.578;-0.066;2023-08-12T04:42:06;25.00;99.90
43183;DHT22;28802;38.578;-0.066;2023-08-12T04:44:32;24.90;99.90
43183;DHT22;28802;38.578;-0.066;2023-08-12T04:46:59;24.90;99.90
43183;DHT22;28802;38.578;-0.066;2023-08-12T04:49:25;25.00;99.90
43183;DHT22;28802;38.578;-0.066;2023-08-12T04:51:52;24.90;99.90
43183;DHT22;28802;38.578;-0.066;2023-08-12T04:54:19;24.90;99.90
43183;DHT22;28802;38.578;-0.066;2023-08-12T04:56:46;24.80;99.90
43183;DHT22;28802;38.578;-0.066;2023-08-12T04:59:12;24.90;99.90
43183;DHT22;28802;38.578;-0.066;2023-08-12T05:01:38;24.80;99.90
43183;DHT22;28802;38.578;-0.066;2023-08-12T05:04:04;24.80;99.90
43183;DHT22;28802;38.578;-0.066;2023-08-12T05:06:30;24.80;99.90
43183;DHT22;28802;38.578;-0.066;2023-08-12T05:08:56;24.80;99.90
43183;DHT22;28802;38.578;-0.066;2023-08-12T05:11:23;24.80;99.90
43183;DHT22;28802;38.578;-0.066;2023-08-12T05:13:48;24.70;99.90
43183;DHT22;28802;38.578;-0.066;2023-08-12T05:16:14;24.70;99.90
43183;DHT22;28802;38.578;-0.066;2023-08-12T05:18:40;24.70;99.90
43183;DHT22;28802;38.578;-0.066;2023-08-12T05:21:06;24.70;99.90
43183;DHT22;28802;38.578;-0.066;2023-08-12T05:23:32;24.70;99.90
43183;DHT22;28802;38.578;-0.066;2023-08-12T05:25:58;24.70;99.90
43183;DHT22;28802;38.578;-0.066;2023-08-12T05:28:24;24.80;99.90
43183;DHT22;28802;38.578;-0.066;2023-08-12T05:30:49;24.80;99.90
43183;DHT22;28802;38.578;-0.066;2023-08-12T05:33:15;24.80;99.90
43183;DHT22;28802;38.578;-0.066;2023-08-12T05:35:41;24.80;99.90
43183;DHT22;28802;38.578;-0.066;2023-08-12T05:38:07;24.90;99.90
43183;DHT22;28802;38.578;-0.066;2023-08-12T05:40:33;25.00;99.90
43183;DHT22;28802;38.578;-0.066;2023-08-12T05:42:59;25.10;99.90
43183;DHT22;28802;38.578;-0.066;2023-08-12T05:45:24;25.20;99.90
43183;DHT22;28802;38.578;-0.066;2023-08-12T05:47:50;25.30;99.90
43183;DHT22;28802;38.578;-0.066;2023-08-12T05:50:16;25.30;99.90
43183;DHT22;28802;38.578;-0.066;2023-08-12T05:52:43;25.50;99.90
43183;DHT22;28802;38.578;-0.066;2023-08-12T05:55:09;25.80;99.90
43183;DHT22;28802;38.578;-0.066;2023-08-12T05:57:35;25.90;99.90
43183;DHT22;28802;38.578;-0.066;2023-08-12T06:00:01;26.30;99.90
43183;DHT22;28802;38.578;-0.066;2023-08-12T06:02:37;26.50;99.90
43183;DHT22;28802;38.578;-0.066;2023-08-12T06:05:04;26.80;99.90
43183;DHT22;28802;38.578;-0.066;2023-08-12T06:07:30;27.30;99.90
43183;DHT22;28802;38.578;-0.066;2023-08-12T06:09:56;27.50;99.90
43183;DHT22;28802;38.578;-0.066;2023-08-12T06:12:22;27.80;99.90
43183;DHT22;28802;38.578;-0.066;2023-08-12T06:14:48;28.00;99.90
43183;DHT22;28802;38.578;-0.066;2023-08-12T06:17:14;28.20;99.90
43183;DHT22;28802;38.578;-0.066;2023-08-12T06:19:40;28.20;99.90
43183;DHT22;28802;38.578;-0.066;2023-08-12T06:22:05;28.20;99.90
43183;DHT22;28802;38.578;-0.066;2023-08-12T06:24:31;28.40;99.90
43183;DHT22;28802;38.578;-0.066;2023-08-12T06:26:57;28.90;99.90
43183;DHT22;28802;38.578;-0.066;2023-08-12T06:29:23;29.40;99.90
43183;DHT22;28802;38.578;-0.066;2023-08-12T06:31:49;30.00;99.90
43183;DHT22;28802;38.578;-0.066;2023-08-12T06:34:15;30.40;99.90
43183;DHT22;28802;38.578;-0.066;2023-08-12T06:36:41;30.80;99.90
43183;DHT22;28802;38.578;-0.066;2023-08-12T06:39:07;31.10;99.90
43183;DHT22;28802;38.578;-0.066;2023-08-12T06:41:33;31.30;99.90
43183;DHT22;28802;38.578;-0.066;2023-08-12T06:43:59;31.50;99.90
43183;DHT22;28802;38.578;-0.066;2023-08-12T06:46:26;31.60;99.90
43183;DHT22;28802;38.578;-0.066;2023-08-12T06:48:52;31.90;99.90
43183;DHT22;28802;38.578;-0.066;2023-08-12T06:51:18;32.30;99.90
43183;DHT22;28802;38.578;-0.066;2023-08-12T06:53:44;32.20;99.90
43183;DHT22;28802;38.578;-0.066;2023-08-12T06:56:10;31.50;99.90
43183;DHT22;28802;38.578;-0.066;2023-08-12T06:58:36;31.20;99.90
43183;DHT22;28802;38.578;-0.066;2023-08-12T07:01:02;31.00;99.90
43183;DHT22;28802;38.578;-0.066;2023-08-12T07:03:28;31.20;99.90
43183;DHT22;28802;38.578;-0.066;2023-08-12T07:05:54;31.80;99.90
43183;DHT22;28802;38.578;-0.066;2023-08-12T07:08:20;32.30;99.90
43183;DHT22;28802;38.578;-0.066;2023-08-12T07:10:46;32.80;99.90
43183;DHT22;28802;38.578;-0.066;2023-08-12T07:13:12;32.70;99.90
43183;DHT22;28802;38.578;-0.066;2023-08-12T07:15:37;32.20;99.90
43183;DHT22;28802;38.578;-0.066;2023-08-12T07:18:04;31.60;99.90
43183;DHT22;28802;38.578;-0.066;2023-08-12T07:20:30;31.10;99.90
43183;DHT22;28802;38.578;-0.066;2023-08-12T07:22:56;30.70;99.90
43183;DHT22;28802;38.578;-0.066;2023-08-12T07:25:21;30.50;99.90
43183;DHT22;28802;38.578;-0.066;2023-08-12T07:27:48;30.30;99.90
43183;DHT22;28802;38.578;-0.066;2023-08-12T07:30:13;29.80;99.90
43183;DHT22;28802;38.578;-0.066;2023-08-12T07:32:39;29.50;99.90
43183;DHT22;28802;38.578;-0.066;2023-08-12T07:35:06;29.60;99.90
43183;DHT22;28802;38.578;-0.066;2023-08-12T07:37:32;29.30;99.90
43183;DHT22;28802;38.578;-0.066;2023-08-12T07:39:58;29.10;99.90
43183;DHT22;28802;38.578;-0.066;2023-08-12T07:42:24;29.10;99.90
43183;DHT22;28802;38.578;-0.066;2023-08-12T07:44:50;29.40;99.90
43183;DHT22;28802;38.578;-0.066;2023-08-12T07:47:16;30.00;99.90
43183;DHT22;28802;38.578;-0.066;2023-08-12T07:49:43;30.20;99.90
43183;DHT22;28802;38.578;-0.066;2023-08-12T07:52:09;30.10;99.90
43183;DHT22;28802;38.578;-0.066;2023-08-12T07:54:35;30.50;99.90
43183;DHT22;28802;38.578;-0.066;2023-08-12T07:57:01;30.70;99.90
43183;DHT22;28802;38.578;-0.066;2023-08-12T07:59:28;30.90;99.90
43183;DHT22;28802;38.578;-0.066;2023-08-12T08:01:54;31.00;99.90
43183;DHT22;28802;38.578;-0.066;2023-08-12T08:04:19;31.10;99.90
43183;DHT22;28802;38.578;-0.066;2023-08-12T08:06:45;30.30;99.90
43183;DHT22;28802;38.578;-0.066;2023-08-12T08:09:11;30.00;99.90
43183;DHT22;28802;38.578;-0.066;2023-08-12T08:11:37;30.10;99.90
43183;DHT22;28802;38.578;-0.066;2023-08-12T08:14:03;30.20;99.90
43183;DHT22;28802;38.578;-0.066;2023-08-12T08:16:29;30.70;99.90
43183;DHT22;28802;38.578;-0.066;2023-08-12T08:18:55;31.20;99.90
43183;DHT22;28802;38.578;-0.066;2023-08-12T08:21:21;31.20;99.90
43183;DHT22;28802;38.578;-0.066;2023-08-12T08:23:47;31.30;99.90
43183;DHT22;28802;38.578;-0.066;2023-08-12T08:26:14;31.20;99.90
43183;DHT22;28802;38.578;-0.066;2023-08-12T08:28:41;30.90;99.90
43183;DHT22;28802;38.578;-0.066;2023-08-12T08:31:07;30.70;99.90
43183;DHT22;28802;38.578;-0.066;2023-08-12T08:33:33;30.60;99.90
43183;DHT22;28802;38.578;-0.066;2023-08-12T08:35:59;30.60;99.90
43183;DHT22;28802;38.578;-0.066;2023-08-12T08:38:24;30.70;99.90
43183;DHT22;28802;38.578;-0.066;2023-08-12T08:40:50;30.70;99.90
43183;DHT22;28802;38.578;-0.066;2023-08-12T08:43:21;30.50;99.90
43183;DHT22;28802;38.578;-0.066;2023-08-12T08:45:53;30.70;99.90
43183;DHT22;28802;38.578;-0.066;2023-08-12T08:48:20;30.80;99.90
43183;DHT22;28802;38.578;-0.066;2023-08-12T08:50:48;31.20;99.90
43183;DHT22;28802;38.578;-0.066;2023-08-12T08:53:14;31.30;99.90
43183;DHT22;28802;38.578;-0.066;2023-08-12T08:55:41;31.30;99.90
43183;DHT22;28802;38.578;-0.066;2023-08-12T08:58:07;31.20;99.90
43183;DHT22;28802;38.578;-0.066;2023-08-12T09:00:33;31.30;99.90
43183;DHT22;28802;38.578;-0.066;2023-08-12T09:02:59;31.40;99.90
43183;DHT22;28802;38.578;-0.066;2023-08-12T09:05:27;31.40;99.90
43183;DHT22;28802;38.578;-0.066;2023-08-12T09:07:54;31.70;99.90
43183;DHT22;28802;38.578;-0.066;2023-08-12T09:10:21;31.70;99.90
43183;DHT22;28802;38.578;-0.066;2023-08-12T09:12:49;31.60;99.90
43183;DHT22;28802;38.578;-0.066;2023-08-12T09:15:18;31.60;99.90
43183;DHT22;28802;38.578;-0.066;2023-08-12T09:17:44;31.40;99.90
43183;DHT22;28802;38.578;-0.066;2023-08-12T09:20:11;31.60;99.90
43183;DHT22;28802;38.578;-0.066;2023-08-12T09:22:41;31.60;99.90
43183;DHT22;28802;38.578;-0.066;2023-08-12T09:25:08;31.20;99.90
43183;DHT22;28802;38.578;-0.066;2023-08-12T09:27:36;31.00;99.90
43183;DHT22;28802;38.578;-0.066;2023-08-12T09:30:04;30.80;99.90
43183;DHT22;28802;38.578;-0.066;2023-08-12T09:32:30;30.80;99.90
43183;DHT22;28802;38.578;-0.066;2023-08-12T09:34:56;30.90;99.90
43183;DHT22;28802;38.578;-0.066;2023-08-12T09:37:24;30.70;99.90
43183;DHT22;28802;38.578;-0.066;2023-08-12T09:39:51;31.00;99.90
43183;DHT22;28802;38.578;-0.066;2023-08-12T09:42:18;30.80;99.90
43183;DHT22;28802;38.578;-0.066;2023-08-12T09:44:44;31.30;99.90
43183;DHT22;28802;38.578;-0.066;2023-08-12T09:47:10;31.30;99.90
43183;DHT22;28802;38.578;-0.066;2023-08-12T09:49:38;31.10;99.90
43183;DHT22;28802;38.578;-0.066;2023-08-12T09:52:05;30.80;99.90
43183;DHT22;28802;38.578;-0.066;2023-08-12T09:54:32;31.00;99.90
43183;DHT22;28802;38.578;-0.066;2023-08-12T09:56:59;31.20;99.90
43183;DHT22;28802;38.578;-0.066;2023-08-12T09:59:33;31.20;99.90
43183;DHT22;28802;38.578;-0.066;2023-08-12T10:02:01;31.40;99.90
43183;DHT22;28802;38.578;-0.066;2023-08-12T10:04:38;31.30;99.90
43183;DHT22;28802;38.578;-0.066;2023-08-12T10:07:11;31.60;99.90
43183;DHT22;28802;38.578;-0.066;2023-08-12T10:09:40;31.40;99.90
43183;DHT22;28802;38.578;-0.066;2023-08-12T10:12:07;31.40;99.90
43183;DHT22;28802;38.578;-0.066;2023-08-12T10:14:33;31.90;99.90
43183;DHT22;28802;38.578;-0.066;2023-08-12T10:17:00;32.40;99.90
43183;DHT22;28802;38.578;-0.066;2023-08-12T10:19:26;32.10;99.90
43183;DHT22;28802;38.578;-0.066;2023-08-12T10:21:55;31.90;99.90
43183;DHT22;28802;38.578;-0.066;2023-08-12T10:24:26;31.80;99.90
43183;DHT22;28802;38.578;-0.066;2023-08-12T10:26:52;31.90;99.90
43183;DHT22;28802;38.578;-0.066;2023-08-12T10:29:20;32.10;99.90
43183;DHT22;28802;38.578;-0.066;2023-08-12T10:31:47;32.10;99.90
43183;DHT22;28802;38.578;-0.066;2023-08-12T10:34:23;32.30;99.90
43183;DHT22;28802;38.578;-0.066;2023-08-12T10:36:57;31.80;99.90
43183;DHT22;28802;38.578;-0.066;2023-08-12T10:39:26;32.00;99.90
43183;DHT22;28802;38.578;-0.066;2023-08-12T10:41:58;32.00;99.90
43183;DHT22;28802;38.578;-0.066;2023-08-12T10:44:51;32.20;99.90
43183;DHT22;28802;38.578;-0.066;2023-08-12T10:47:20;32.20;99.90
43183;DHT22;28802;38.578;-0.066;2023-08-12T10:49:50;31.60;99.90
43183;DHT22;28802;38.578;-0.066;2023-08-12T10:52:32;31.70;99.90
43183;DHT22;28802;38.578;-0.066;2023-08-12T10:55:19;31.40;99.90
43183;DHT22;28802;38.578;-0.066;2023-08-12T10:57:46;31.60;99.90
43183;DHT22;28802;38.578;-0.066;2023-08-12T11:00:30;31.20;99.90
43183;DHT22;28802;38.578;-0.066;2023-08-12T11:02:57;31.00;99.90
43183;DHT22;28802;38.578;-0.066;2023-08-12T11:05:24;30.70;99.90
43183;DHT22;28802;38.578;-0.066;2023-08-12T11:07:57;31.10;99.90
43183;DHT22;28802;38.578;-0.066;2023-08-12T11:10:30;31.30;99.90
43183;DHT22;28802;38.578;-0.066;2023-08-12T11:12:58;30.70;99.90
43183;DHT22;28802;38.578;-0.066;2023-08-12T11:15:40;30.50;99.90
43183;DHT22;28802;38.578;-0.066;2023-08-12T11:18:08;30.80;99.90
43183;DHT22;28802;38.578;-0.066;2023-08-12T11:20:35;30.40;99.90
43183;DHT22;28802;38.578;-0.066;2023-08-12T11:23:02;30.70;99.90
43183;DHT22;28802;38.578;-0.066;2023-08-12T11:25:29;31.10;99.90
43183;DHT22;28802;38.578;-0.066;2023-08-12T11:27:56;30.60;99.90
43183;DHT22;28802;38.578;-0.066;2023-08-12T11:30:22;30.30;99.90
43183;DHT22;28802;38.578;-0.066;2023-08-12T11:32:50;30.90;99.90
43183;DHT22;28802;38.578;-0.066;2023-08-12T11:35:17;31.30;99.90
43183;DHT22;28802;38.578;-0.066;2023-08-12T11:37:48;31.20;99.90
43183;DHT22;28802;38.578;-0.066;2023-08-12T11:40:16;31.30;99.90
43183;DHT22;28802;38.578;-0.066;2023-08-12T11:42:44;31.30;99.90
43183;DHT22;28802;38.578;-0.066;2023-08-12T11:45:11;31.50;99.90
43183;DHT22;28802;38.578;-0.066;2023-08-12T11:47:39;31.50;99.90
43183;DHT22;28802;38.578;-0.066;2023-08-12T11:50:07;31.20;99.90
43183;DHT22;28802;38.578;-0.066;2023-08-12T11:52:34;31.20;99.90
43183;DHT22;28802;38.578;-0.066;2023-08-12T11:55:00;31.80;99.90
43183;DHT22;28802;38.578;-0.066;2023-08-12T11:57:27;31.40;99.90
43183;DHT22;28802;38.578;-0.066;2023-08-12T12:00:03;31.40;99.90
43183;DHT22;28802;38.578;-0.066;2023-08-12T12:05:21;31.60;99.90
43183;DHT22;28802;38.578;-0.066;2023-08-12T12:07:49;31.60;99.90
43183;DHT22;28802;38.578;-0.066;2023-08-12T12:10:30;31.80;99.90
43183;DHT22;28802;38.578;-0.066;2023-08-12T12:12:56;31.30;99.90
43183;DHT22;28802;38.578;-0.066;2023-08-12T12:15:22;31.50;99.90
43183;DHT22;28802;38.578;-0.066;2023-08-12T12:17:52;31.80;99.90
43183;DHT22;28802;38.578;-0.066;2023-08-12T12:20:18;32.20;99.90
43183;DHT22;28802;38.578;-0.066;2023-08-12T12:22:45;31.70;99.90
43183;DHT22;28802;38.578;-0.066;2023-08-12T12:25:15;31.40;99.90
43183;DHT22;28802;38.578;-0.066;2023-08-12T12:27:43;30.90;99.90
43183;DHT22;28802;38.578;-0.066;2023-08-12T12:30:12;31.50;99.90
43183;DHT22;28802;38.578;-0.066;2023-08-12T12:32:38;32.20;99.90
43183;DHT22;28802;38.578;-0.066;2023-08-12T12:35:07;32.00;99.90
43183;DHT22;28802;38.578;-0.066;2023-08-12T12:37:33;31.30;99.90
43183;DHT22;28802;38.578;-0.066;2023-08-12T12:39:59;31.90;99.90
43183;DHT22;28802;38.578;-0.066;2023-08-12T12:42:25;31.40;99.90
43183;DHT22;28802;38.578;-0.066;2023-08-12T12:44:51;30.80;99.90
43183;DHT22;28802;38.578;-0.066;2023-08-12T12:47:18;30.40;99.90
43183;DHT22;28802;38.578;-0.066;2023-08-12T12:49:45;30.20;99.90
43183;DHT22;28802;38.578;-0.066;2023-08-12T12:52:11;29.80;99.90
43183;DHT22;28802;38.578;-0.066;2023-08-12T12:54:37;29.90;99.90
43183;DHT22;28802;38.578;-0.066;2023-08-12T12:57:03;30.00;99.90
43183;DHT22;28802;38.578;-0.066;2023-08-12T12:59:32;30.20;99.90
43183;DHT22;28802;38.578;-0.066;2023-08-12T13:01:58;30.10;99.90
43183;DHT22;28802;38.578;-0.066;2023-08-12T13:04:24;30.20;99.90
43183;DHT22;28802;38.578;-0.066;2023-08-12T13:06:50;30.20;99.90
43183;DHT22;28802;38.578;-0.066;2023-08-12T13:09:16;30.10;99.90
43183;DHT22;28802;38.578;-0.066;2023-08-12T13:11:42;30.00;99.90
43183;DHT22;28802;38.578;-0.066;2023-08-12T13:14:08;29.90;99.90
43183;DHT22;28802;38.578;-0.066;2023-08-12T13:16:35;29.70;99.90
43183;DHT22;28802;38.578;-0.066;2023-08-12T13:19:01;29.50;99.90
43183;DHT22;28802;38.578;-0.066;2023-08-12T13:21:27;29.30;99.90
43183;DHT22;28802;38.578;-0.066;2023-08-12T13:23:54;29.10;99.90
43183;DHT22;28802;38.578;-0.066;2023-08-12T13:26:21;29.00;99.90
43183;DHT22;28802;38.578;-0.066;2023-08-12T13:28:47;29.20;99.90
43183;DHT22;28802;38.578;-0.066;2023-08-12T13:31:13;29.00;99.90
43183;DHT22;28802;38.578;-0.066;2023-08-12T13:33:39;29.10;99.90
43183;DHT22;28802;38.578;-0.066;2023-08-12T13:36:08;29.20;99.90
43183;DHT22;28802;38.578;-0.066;2023-08-12T13:38:33;29.10;99.90
43183;DHT22;28802;38.578;-0.066;2023-08-12T13:40:59;29.30;99.90
43183;DHT22;28802;38.578;-0.066;2023-08-12T13:43:25;29.40;99.90
43183;DHT22;28802;38.578;-0.066;2023-08-12T13:45:51;29.20;99.90
43183;DHT22;28802;38.578;-0.066;2023-08-12T13:48:17;29.20;99.90
43183;DHT22;28802;38.578;-0.066;2023-08-12T13:50:43;29.40;99.90
43183;DHT22;28802;38.578;-0.066;2023-08-12T13:53:09;29.30;99.90
43183;DHT22;28802;38.578;-0.066;2023-08-12T13:55:35;29.50;99.90
43183;DHT22;28802;38.578;-0.066;2023-08-12T13:58:01;29.50;99.90
43183;DHT22;28802;38.578;-0.066;2023-08-12T14:00:27;29.80;99.90
43183;DHT22;28802;38.578;-0.066;2023-08-12T14:02:53;29.90;99.90
43183;DHT22;28802;38.578;-0.066;2023-08-12T14:05:19;29.60;99.90
43183;DHT22;28802;38.578;-0.066;2023-08-12T14:07:45;29.70;99.90
43183;DHT22;28802;38.578;-0.066;2023-08-12T14:10:11;29.70;99.90
43183;DHT22;28802;38.578;-0.066;2023-08-12T14:12:37;29.70;99.90
43183;DHT22;28802;38.578;-0.066;2023-08-12T14:15:03;29.50;99.90
43183;DHT22;28802;38.578;-0.066;2023-08-12T14:17:29;29.50;99.90
43183;DHT22;28802;38.578;-0.066;2023-08-12T14:19:55;29.50;99.90
43183;DHT22;28802;38.578;-0.066;2023-08-12T14:22:21;29.50;99.90
43183;DHT22;28802;38.578;-0.066;2023-08-12T14:24:47;29.60;99.90
43183;DHT22;28802;38.578;-0.066;2023-08-12T14:27:16;29.80;99.90
43183;DHT22;28802;38.578;-0.066;2023-08-12T14:29:45;29.60;99.90
43183;DHT22;28802;38.578;-0.066;2023-08-12T14:32:12;29.60;99.90
43183;DHT22;28802;38.578;-0.066;2023-08-12T14:34:38;29.40;99.90
43183;DHT22;28802;38.578;-0.066;2023-08-12T14:37:04;29.20;99.90
43183;DHT22;28802;38.578;-0.066;2023-08-12T14:39:30;29.40;99.90
43183;DHT22;28802;38.578;-0.066;2023-08-12T14:41:56;29.30;99.90
43183;DHT22;28802;38.578;-0.066;2023-08-12T14:44:22;29.30;99.90
43183;DHT22;28802;38.578;-0.066;2023-08-12T14:46:48;29.60;99.90
43183;DHT22;28802;38.578;-0.066;2023-08-12T14:49:14;29.70;99.90
43183;DHT22;28802;38.578;-0.066;2023-08-12T14:51:40;29.80;99.90
43183;DHT22;28802;38.578;-0.066;2023-08-12T14:54:06;29.40;99.90
43183;DHT22;28802;38.578;-0.066;2023-08-12T14:56:33;29.50;99.90
43183;DHT22;28802;38.578;-0.066;2023-08-12T14:58:59;29.50;99.90
43183;DHT22;28802;38.578;-0.066;2023-08-12T15:01:24;29.50;99.90
43183;DHT22;28802;38.578;-0.066;2023-08-12T15:03:54;29.70;99.90
43183;DHT22;28802;38.578;-0.066;2023-08-12T15:06:21;29.90;99.90
43183;DHT22;28802;38.578;-0.066;2023-08-12T15:08:48;29.90;99.90
43183;DHT22;28802;38.578;-0.066;2023-08-12T15:11:14;29.80;99.90
43183;DHT22;28802;38.578;-0.066;2023-08-12T15:13:40;29.60;99.90
43183;DHT22;28802;38.578;-0.066;2023-08-12T15:16:06;29.80;99.90
43183;DHT22;28802;38.578;-0.066;2023-08-12T15:18:32;29.80;99.90
43183;DHT22;28802;38.578;-0.066;2023-08-12T15:20:57;29.60;99.90